sensor_id;sensor_type;location;lat;lon;timestamp;P1;P2;P0
76304;PMS7003;65111;50.536;19.204;2023-04-21T00:00:22;17.50;17.50;11.00
76304;PMS7003;65111;50.536;19.204;2023-04-21T00:02:48;19.00;19.00;13.33
76304;PMS7003;65111;50.536;19.204;2023-04-21T00:05:14;18.50;18.50;13.00
76304;PMS7003;65111;50.536;19.204;2023-04-21T00:07:40;16.67;16.00;11.00
76304;PMS7003;65111;50.536;19.204;2023-04-21T00:10:07;18.50;16.50;11.50
76304;PMS7003;65111;50.536;19.204;2023-04-21T00:12:34;12.33;12.33;10.00
76304;PMS7003;65111;50.536;19.204;2023-04-21T00:15:00;20.00;17.00;13.00
76304;PMS7003;65111;50.536;19.204;2023-04-21T00:17:26;23.50;19.50;13.50
76304;PMS7003;65111;50.536;19.204;2023-04-21T00:19:52;19.00;18.33;12.33
76304;PMS7003;65111;50.536;19.204;2023-04-21T00:22:19;30.00;22.00;15.00
76304;PMS7003;65111;50.536;19.204;2023-04-21T00:24:46;20.00;15.67;11.00
76304;PMS7003;65111;50.536;19.204;2023-04-21T00:27:12;21.50;14.00;11.00
76304;PMS7003;65111;50.536;19.204;2023-04-21T00:29:40;24.00;21.00;14.00
76304;PMS7003;65111;50.536;19.204;2023-04-21T00:32:06;20.00;18.00;14.00
76304;PMS7003;65111;50.536;19.204;2023-04-21T00:34:34;20.00;14.50;11.00
76304;PMS7003;65111;50.536;19.204;2023-04-21T00:37:00;11.00;10.00;8.00
76304;PMS7003;65111;50.536;19.204;2023-04-21T00:39:27;17.67;17.00;14.00
76304;PMS7003;65111;50.536;19.204;2023-04-21T00:41:53;18.00;18.00;14.00
76304;PMS7003;65111;50.536;19.204;2023-04-21T00:44:19;19.50;16.50;10.50
76304;PMS7003;65111;50.536;19.204;2023-04-21T00:46:45;13.50;13.50;10.00
76304;PMS7003;65111;50.536;19.204;2023-04-21T00:49:11;21.33;16.00;11.00
76304;PMS7003;65111;50.536;19.204;2023-04-21T00:51:38;30.50;20.50;13.50
76304;PMS7003;65111;50.536;19.204;2023-04-21T00:54:05;20.00;17.00;11.00
76304;PMS7003;65111;50.536;19.204;2023-04-21T00:56:33;21.00;17.00;13.00
76304;PMS7003;65111;50.536;19.204;2023-04-21T00:59:01;17.00;15.00;11.00
76304;PMS7003;65111;50.536;19.204;2023-04-21T01:01:28;24.00;18.67;14.00
76304;PMS7003;65111;50.536;19.204;2023-04-21T01:04:01;20.00;19.00;13.50
76304;PMS7003;65111;50.536;19.204;2023-04-21T01:06:29;19.00;17.67;13.67
76304;PMS7003;65111;50.536;19.204;2023-04-21T01:08:59;18.33;16.33;11.00
76304;PMS7003;65111;50.536;19.204;2023-04-21T01:11:26;20.50;19.00;11.00
76304;PMS7003;65111;50.536;19.204;2023-04-21T01:13:52;13.50;13.50;10.50
76304;PMS7003;65111;50.536;19.204;2023-04-21T01:16:19;17.00;17.00;13.00
76304;PMS7003;65111;50.536;19.204;2023-04-21T01:18:46;23.33;18.67;13.67
76304;PMS7003;65111;50.536;19.204;2023-04-21T01:21:12;19.33;16.67;12.00
76304;PMS7003;65111;50.536;19.204;2023-04-21T01:23:39;20.00;17.00;10.50
76304;PMS7003;65111;50.536;19.204;2023-04-21T01:26:05;23.00;20.50;13.00
76304;PMS7003;65111;50.536;19.204;2023-04-21T01:28:32;24.00;19.00;11.00
76304;PMS7003;65111;50.536;19.204;2023-04-21T01:30:58;25.00;19.00;16.00
76304;PMS7003;65111;50.536;19.204;2023-04-21T01:33:24;25.00;24.50;18.00
76304;PMS7003;65111;50.536;19.204;2023-04-21T01:35:50;17.00;17.00;14.00
76304;PMS7003;65111;50.536;19.204;2023-04-21T01:38:16;22.00;22.00;16.00
76304;PMS7003;65111;50.536;19.204;2023-04-21T01:40:49;24.67;21.33;14.33
76304;PMS7003;65111;50.536;19.204;2023-04-21T01:43:17;19.00;19.00;14.00
76304;PMS7003;65111;50.536;19.204;2023-04-21T01:45:45;26.00;23.33;16.33
76304;PMS7003;65111;50.536;19.204;2023-04-21T01:48:12;23.00;20.00;14.00
76304;PMS7003;65111;50.536;19.204;2023-04-21T01:50:38;20.50;19.00;15.00
76304;PMS7003;65111;50.536;19.204;2023-04-21T01:53:04;27.00;24.00;15.00
76304;PMS7003;65111;50.536;19.204;2023-04-21T01:55:31;27.67;21.00;16.00
76304;PMS7003;65111;50.536;19.204;2023-04-21T01:57:57;20.00;20.00;17.00
76304;PMS7003;65111;50.536;19.204;2023-04-21T02:00:24;22.00;22.00;17.00
76304;PMS7003;65111;50.536;19.204;2023-04-21T02:02:51;22.00;19.67;12.33
76304;PMS7003;65111;50.536;19.204;2023-04-21T02:05:17;25.00;21.00;14.33
76304;PMS7003;65111;50.536;19.204;2023-04-21T02:07:44;26.00;26.00;17.00
76304;PMS7003;65111;50.536;19.204;2023-04-21T02:10:10;25.00;22.00;15.00
76304;PMS7003;65111;50.536;19.204;2023-04-21T02:12:36;22.00;18.50;15.00
76304;PMS7003;65111;50.536;19.204;2023-04-21T02:15:02;26.00;21.50;13.00
76304;PMS7003;65111;50.536;19.204;2023-04-21T02:17:29;15.50;15.50;12.50
76304;PMS7003;65111;50.536;19.204;2023-04-21T02:19:56;18.00;18.00;12.00
76304;PMS7003;65111;50.536;19.204;2023-04-21T02:22:22;19.00;19.00;13.00
76304;PMS7003;65111;50.536;19.204;2023-04-21T02:24:49;19.00;15.00;12.00
76304;PMS7003;65111;50.536;19.204;2023-04-21T02:27:15;27.00;23.00;15.00
76304;PMS7003;65111;50.536;19.204;2023-04-21T02:29:41;27.00;21.00;15.00
76304;PMS7003;65111;50.536;19.204;2023-04-21T02:32:07;22.00;22.00;15.67
76304;PMS7003;65111;50.536;19.204;2023-04-21T02:34:33;22.67;21.33;18.00
76304;PMS7003;65111;50.536;19.204;2023-04-21T02:36:59;28.50;23.00;17.50
76304;PMS7003;65111;50.536;19.204;2023-04-21T02:39:25;31.00;30.00;22.00
76304;PMS7003;65111;50.536;19.204;2023-04-21T02:41:51;43.67;36.67;25.00
76304;PMS7003;65111;50.536;19.204;2023-04-21T02:44:17;45.67;39.67;29.33
76304;PMS7003;65111;50.536;19.204;2023-04-21T02:46:43;48.00;45.00;31.00
76304;PMS7003;65111;50.536;19.204;2023-04-21T02:49:09;34.00;32.00;27.00
76304;PMS7003;65111;50.536;19.204;2023-04-21T02:51:35;33.33;28.67;19.67
76304;PMS7003;65111;50.536;19.204;2023-04-21T02:54:01;24.00;22.00;21.00
76304;PMS7003;65111;50.536;19.204;2023-04-21T02:56:28;23.50;22.50;16.00
76304;PMS7003;65111;50.536;19.204;2023-04-21T02:58:53;25.67;22.67;16.00
76304;PMS7003;65111;50.536;19.204;2023-04-21T03:01:19;19.67;18.00;14.33
76304;PMS7003;65111;50.536;19.204;2023-04-21T03:03:45;13.00;13.00;10.00
76304;PMS7003;65111;50.536;19.204;2023-04-21T03:06:11;24.00;18.00;12.00
76304;PMS7003;65111;50.536;19.204;2023-04-21T03:08:37;18.00;18.00;12.00
76304;PMS7003;65111;50.536;19.204;2023-04-21T03:11:03;14.33;14.33;10.00
76304;PMS7003;65111;50.536;19.204;2023-04-21T03:13:29;12.50;10.00;9.00
76304;PMS7003;65111;50.536;19.204;2023-04-21T03:15:55;10.00;6.00;6.00
76304;PMS7003;65111;50.536;19.204;2023-04-21T03:18:21;7.00;7.00;7.00
76304;PMS7003;65111;50.536;19.204;2023-04-21T03:20:48;13.00;10.00;7.00
76304;PMS7003;65111;50.536;19.204;2023-04-21T03:23:13;24.67;21.00;16.67
76304;PMS7003;65111;50.536;19.204;2023-04-21T03:25:40;28.00;25.00;18.00
76304;PMS7003;65111;50.536;19.204;2023-04-21T03:28:06;21.00;19.00;12.50
76304;PMS7003;65111;50.536;19.204;2023-04-21T03:30:32;19.67;15.00;10.67
76304;PMS7003;65111;50.536;19.204;2023-04-21T03:32:58;24.00;16.00;12.00
76304;PMS7003;65111;50.536;19.204;2023-04-21T03:35:24;22.00;19.00;15.00
76304;PMS7003;65111;50.536;19.204;2023-04-21T03:37:50;22.00;21.33;13.00
76304;PMS7003;65111;50.536;19.204;2023-04-21T03:40:16;25.00;21.00;15.00
76304;PMS7003;65111;50.536;19.204;2023-04-21T03:42:42;24.00;21.00;13.00
76304;PMS7003;65111;50.536;19.204;2023-04-21T03:45:08;24.50;20.00;13.00
76304;PMS7003;65111;50.536;19.204;2023-04-21T03:47:35;13.00;12.00;6.00
76304;PMS7003;65111;50.536;19.204;2023-04-21T03:50:04;13.00;12.67;9.33
76304;PMS7003;65111;50.536;19.204;2023-04-21T03:52:31;19.00;19.00;16.00
76304;PMS7003;65111;50.536;19.204;2023-04-21T03:54:57;13.00;10.00;7.00
76304;PMS7003;65111;50.536;19.204;2023-04-21T03:57:23;16.00;15.00;13.00
76304;PMS7003;65111;50.536;19.204;2023-04-21T03:59:49;13.00;13.00;12.00
76304;PMS7003;65111;50.536;19.204;2023-04-21T04:02:15;18.00;16.00;12.00
76304;PMS7003;65111;50.536;19.204;2023-04-21T04:04:41;12.50;12.00;10.00
76304;PMS7003;65111;50.536;19.204;2023-04-21T04:07:07;13.00;12.50;9.00
76304;PMS7003;65111;50.536;19.204;2023-04-21T04:09:34;18.50;16.00;12.00
76304;PMS7003;65111;50.536;19.204;2023-04-21T04:12:00;12.00;12.00;7.00
76304;PMS7003;65111;50.536;19.204;2023-04-21T04:14:27;22.00;19.00;15.00
76304;PMS7003;65111;50.536;19.204;2023-04-21T04:16:54;35.67;32.00;22.67
76304;PMS7003;65111;50.536;19.204;2023-04-21T04:19:20;47.33;43.00;28.00
76304;PMS7003;65111;50.536;19.204;2023-04-21T04:21:46;33.00;32.00;24.00
76304;PMS7003;65111;50.536;19.204;2023-04-21T04:24:12;34.00;30.50;24.50
76304;PMS7003;65111;50.536;19.204;2023-04-21T04:26:38;33.00;30.00;23.00
76304;PMS7003;65111;50.536;19.204;2023-04-21T04:29:04;25.00;25.00;18.00
76304;PMS7003;65111;50.536;19.204;2023-04-21T04:31:34;38.00;32.33;16.33
76304;PMS7003;65111;50.536;19.204;2023-04-21T04:34:00;25.50;25.50;18.50
76304;PMS7003;65111;50.536;19.204;2023-04-21T04:36:26;23.50;22.00;16.00
76304;PMS7003;65111;50.536;19.204;2023-04-21T04:38:52;25.67;22.33;15.67
76304;PMS7003;65111;50.536;19.204;2023-04-21T04:41:18;23.50;23.50;16.00
76304;PMS7003;65111;50.536;19.204;2023-04-21T04:43:45;31.00;28.00;23.00
76304;PMS7003;65111;50.536;19.204;2023-04-21T04:46:12;29.67;25.67;19.67
76304;PMS7003;65111;50.536;19.204;2023-04-21T04:48:38;31.00;31.00;21.00
76304;PMS7003;65111;50.536;19.204;2023-04-21T04:51:04;28.00;27.00;18.00
76304;PMS7003;65111;50.536;19.204;2023-04-21T04:53:31;19.00;19.00;14.00
76304;PMS7003;65111;50.536;19.204;2023-04-21T04:55:57;20.00;19.33;14.33
76304;PMS7003;65111;50.536;19.204;2023-04-21T04:58:24;17.00;17.00;13.00
76304;PMS7003;65111;50.536;19.204;2023-04-21T05:00:50;17.33;16.67;13.00
76304;PMS7003;65111;50.536;19.204;2023-04-21T05:03:16;16.50;12.50;9.50
76304;PMS7003;65111;50.536;19.204;2023-04-21T05:05:42;17.00;16.00;12.00
76304;PMS7003;65111;50.536;19.204;2023-04-21T05:08:09;19.00;18.00;14.00
76304;PMS7003;65111;50.536;19.204;2023-04-21T05:10:35;20.00;19.00;14.00
76304;PMS7003;65111;50.536;19.204;2023-04-21T05:13:01;17.33;16.00;9.33
76304;PMS7003;65111;50.536;19.204;2023-04-21T05:15:27;18.33;18.33;14.67
76304;PMS7003;65111;50.536;19.204;2023-04-21T05:17:53;19.00;19.00;13.00
76304;PMS7003;65111;50.536;19.204;2023-04-21T05:20:19;24.50;22.00;16.50
76304;PMS7003;65111;50.536;19.204;2023-04-21T05:22:45;24.00;22.00;17.00
76304;PMS7003;65111;50.536;19.204;2023-04-21T05:25:11;25.00;23.00;16.00
76304;PMS7003;65111;50.536;19.204;2023-04-21T05:27:40;27.00;26.00;19.50
76304;PMS7003;65111;50.536;19.204;2023-04-21T05:30:07;21.67;20.67;15.00
76304;PMS7003;65111;50.536;19.204;2023-04-21T05:32:33;20.00;19.00;15.00
76304;PMS7003;65111;50.536;19.204;2023-04-21T05:35:00;20.00;18.00;12.00
76304;PMS7003;65111;50.536;19.204;2023-04-21T05:37:26;23.00;23.00;15.00
76304;PMS7003;65111;50.536;19.204;2023-04-21T05:39:52;20.50;20.50;15.00
76304;PMS7003;65111;50.536;19.204;2023-04-21T05:42:18;18.00;16.00;13.50
76304;PMS7003;65111;50.536;19.204;2023-04-21T05:44:44;15.50;15.00;13.00
76304;PMS7003;65111;50.536;19.204;2023-04-21T05:47:10;18.50;18.50;14.00
76304;PMS7003;65111;50.536;19.204;2023-04-21T05:49:36;18.00;17.00;12.00
76304;PMS7003;65111;50.536;19.204;2023-04-21T05:52:02;24.00;21.00;16.00
76304;PMS7003;65111;50.536;19.204;2023-04-21T05:54:28;22.50;20.50;15.00
76304;PMS7003;65111;50.536;19.204;2023-04-21T05:56:53;20.00;18.00;14.00
76304;PMS7003;65111;50.536;19.204;2023-04-21T05:59:19;19.50;19.50;15.50
76304;PMS7003;65111;50.536;19.204;2023-04-21T06:01:45;21.00;20.00;13.00
76304;PMS7003;65111;50.536;19.204;2023-04-21T06:04:11;23.00;23.00;19.00
76304;PMS7003;65111;50.536;19.204;2023-04-21T06:06:37;20.00;19.00;16.00
76304;PMS7003;65111;50.536;19.204;2023-04-21T06:09:03;25.00;23.00;18.50
76304;PMS7003;65111;50.536;19.204;2023-04-21T06:11:30;22.50;22.50;18.00
76304;PMS7003;65111;50.536;19.204;2023-04-21T06:13:55;23.00;21.00;18.50
76304;PMS7003;65111;50.536;19.204;2023-04-21T06:16:24;27.00;25.00;18.00
76304;PMS7003;65111;50.536;19.204;2023-04-21T06:18:50;28.00;27.00;19.00
76304;PMS7003;65111;50.536;19.204;2023-04-21T06:21:16;24.50;22.00;17.00
76304;PMS7003;65111;50.536;19.204;2023-04-21T06:23:42;15.00;14.00;10.00
76304;PMS7003;65111;50.536;19.204;2023-04-21T06:26:08;19.00;18.00;14.00
76304;PMS7003;65111;50.536;19.204;2023-04-21T06:28:35;17.00;17.00;13.00
76304;PMS7003;65111;50.536;19.204;2023-04-21T06:31:02;18.00;18.00;14.00
76304;PMS7003;65111;50.536;19.204;2023-04-21T06:33:29;21.50;20.00;14.00
76304;PMS7003;65111;50.536;19.204;2023-04-21T06:35:55;15.50;15.50;12.50
76304;PMS7003;65111;50.536;19.204;2023-04-21T06:38:21;21.00;19.00;16.00
76304;PMS7003;65111;50.536;19.204;2023-04-21T06:40:47;23.00;22.67;17.33
76304;PMS7003;65111;50.536;19.204;2023-04-21T06:43:13;27.00;26.00;18.00
76304;PMS7003;65111;50.536;19.204;2023-04-21T06:45:39;26.00;24.00;17.00
76304;PMS7003;65111;50.536;19.204;2023-04-21T06:48:05;24.00;24.00;18.00
76304;PMS7003;65111;50.536;19.204;2023-04-21T06:50:31;26.00;26.00;17.50
76304;PMS7003;65111;50.536;19.204;2023-04-21T06:52:57;26.00;26.00;19.00
76304;PMS7003;65111;50.536;19.204;2023-04-21T06:55:24;27.50;27.50;19.50
76304;PMS7003;65111;50.536;19.204;2023-04-21T06:57:50;31.50;30.50;20.50
76304;PMS7003;65111;50.536;19.204;2023-04-21T07:00:16;33.00;29.00;20.00
76304;PMS7003;65111;50.536;19.204;2023-04-21T07:02:42;29.50;29.00;19.50
76304;PMS7003;65111;50.536;19.204;2023-04-21T07:05:08;28.00;27.00;20.00
76304;PMS7003;65111;50.536;19.204;2023-04-21T07:07:34;27.00;25.00;19.00
76304;PMS7003;65111;50.536;19.204;2023-04-21T07:10:00;31.00;28.50;21.00
76304;PMS7003;65111;50.536;19.204;2023-04-21T07:12:26;31.00;29.00;19.00
76304;PMS7003;65111;50.536;19.204;2023-04-21T07:14:52;25.00;24.00;18.50
76304;PMS7003;65111;50.536;19.204;2023-04-21T07:17:18;29.50;27.50;19.00
76304;PMS7003;65111;50.536;19.204;2023-04-21T07:19:44;26.00;26.00;17.00
76304;PMS7003;65111;50.536;19.204;2023-04-21T07:22:10;25.00;22.00;17.00
76304;PMS7003;65111;50.536;19.204;2023-04-21T07:24:36;21.50;21.00;18.00
76304;PMS7003;65111;50.536;19.204;2023-04-21T07:27:02;22.00;21.00;14.50
76304;PMS7003;65111;50.536;19.204;2023-04-21T07:29:28;23.00;23.00;18.00
76304;PMS7003;65111;50.536;19.204;2023-04-21T07:31:54;22.50;20.50;15.50
76304;PMS7003;65111;50.536;19.204;2023-04-21T07:34:23;20.00;19.00;14.00
76304;PMS7003;65111;50.536;19.204;2023-04-21T07:36:50;25.00;25.00;18.50
76304;PMS7003;65111;50.536;19.204;2023-04-21T07:39:17;20.00;20.00;16.00
76304;PMS7003;65111;50.536;19.204;2023-04-21T07:41:42;21.00;19.00;15.33
76304;PMS7003;65111;50.536;19.204;2023-04-21T07:44:08;16.50;16.50;13.00
76304;PMS7003;65111;50.536;19.204;2023-04-21T07:46:34;16.00;16.00;13.00
76304;PMS7003;65111;50.536;19.204;2023-04-21T07:49:00;16.50;15.00;11.00
76304;PMS7003;65111;50.536;19.204;2023-04-21T07:51:26;20.50;17.50;14.50
76304;PMS7003;65111;50.536;19.204;2023-04-21T07:53:52;17.00;17.00;13.00
76304;PMS7003;65111;50.536;19.204;2023-04-21T07:56:18;17.00;17.00;13.00
76304;PMS7003;65111;50.536;19.204;2023-04-21T07:58:44;17.00;17.00;12.00
76304;PMS7003;65111;50.536;19.204;2023-04-21T08:01:10;17.33;16.00;11.00
76304;PMS7003;65111;50.536;19.204;2023-04-21T08:03:36;13.00;13.00;10.00
76304;PMS7003;65111;50.536;19.204;2023-04-21T08:06:02;16.00;16.00;12.00
76304;PMS7003;65111;50.536;19.204;2023-04-21T08:08:28;14.00;13.00;11.00
76304;PMS7003;65111;50.536;19.204;2023-04-21T08:10:54;13.00;13.00;9.67
76304;PMS7003;65111;50.536;19.204;2023-04-21T08:13:20;13.00;13.00;10.50
76304;PMS7003;65111;50.536;19.204;2023-04-21T08:15:52;14.33;13.00;10.67
76304;PMS7003;65111;50.536;19.204;2023-04-21T08:18:19;18.00;15.00;11.00
76304;PMS7003;65111;50.536;19.204;2023-04-21T08:20:45;11.67;11.00;9.00
76304;PMS7003;65111;50.536;19.204;2023-04-21T08:23:15;16.00;13.00;11.50
76304;PMS7003;65111;50.536;19.204;2023-04-21T08:25:41;12.50;12.00;11.00
76304;PMS7003;65111;50.536;19.204;2023-04-21T08:28:07;12.00;12.00;11.00
76304;PMS7003;65111;50.536;19.204;2023-04-21T08:30:33;15.00;15.00;11.00
76304;PMS7003;65111;50.536;19.204;2023-04-21T08:32:58;16.67;15.00;11.33
76304;PMS7003;65111;50.536;19.204;2023-04-21T08:35:25;12.00;12.00;10.00
76304;PMS7003;65111;50.536;19.204;2023-04-21T08:37:51;10.00;10.00;8.50
76304;PMS7003;65111;50.536;19.204;2023-04-21T08:40:17;13.00;13.00;10.00
76304;PMS7003;65111;50.536;19.204;2023-04-21T08:42:43;9.00;9.00;7.50
76304;PMS7003;65111;50.536;19.204;2023-04-21T08:45:10;15.00;14.00;11.00
76304;PMS7003;65111;50.536;19.204;2023-04-21T08:47:37;10.00;10.00;8.00
76304;PMS7003;65111;50.536;19.204;2023-04-21T08:50:05;13.50;13.50;10.50
76304;PMS7003;65111;50.536;19.204;2023-04-21T08:52:36;12.00;12.00;10.50
76304;PMS7003;65111;50.536;19.204;2023-04-21T08:55:03;13.67;13.67;10.33
76304;PMS7003;65111;50.536;19.204;2023-04-21T08:57:32;12.00;12.00;9.00
76304;PMS7003;65111;50.536;19.204;2023-04-21T08:59:58;16.00;16.00;12.00
76304;PMS7003;65111;50.536;19.204;2023-04-21T09:02:24;14.00;13.00;11.00
76304;PMS7003;65111;50.536;19.204;2023-04-21T09:04:50;10.00;9.50;8.00
76304;PMS7003;65111;50.536;19.204;2023-04-21T09:07:37;10.33;10.33;9.33
76304;PMS7003;65111;50.536;19.204;2023-04-21T09:10:06;11.00;10.00;8.00
76304;PMS7003;65111;50.536;19.204;2023-04-21T09:12:33;14.00;14.00;10.50
76304;PMS7003;65111;50.536;19.204;2023-04-21T09:14:58;12.00;12.00;9.00
76304;PMS7003;65111;50.536;19.204;2023-04-21T09:17:30;12.00;12.00;9.25
76304;PMS7003;65111;50.536;19.204;2023-04-21T09:22:44;12.00;11.00;10.00
76304;PMS7003;65111;50.536;19.204;2023-04-21T09:25:14;12.00;12.00;11.00
76304;PMS7003;65111;50.536;19.204;2023-04-21T09:27:42;13.00;12.00;11.00
76304;PMS7003;65111;50.536;19.204;2023-04-21T09:30:08;16.00;15.00;11.33
76304;PMS7003;65111;50.536;19.204;2023-04-21T09:32:35;28.50;27.50;19.00
76304;PMS7003;65111;50.536;19.204;2023-04-21T09:35:02;14.50;14.50;11.00
76304;PMS7003;65111;50.536;19.204;2023-04-21T09:37:30;12.00;11.00;8.00
76304;PMS7003;65111;50.536;19.204;2023-04-21T09:39:59;15.00;14.00;10.00
76304;PMS7003;65111;50.536;19.204;2023-04-21T09:42:28;16.00;15.00;11.00
76304;PMS7003;65111;50.536;19.204;2023-04-21T09:44:55;16.00;14.00;12.00
76304;PMS7003;65111;50.536;19.204;2023-04-21T09:47:21;13.00;13.00;8.00
76304;PMS7003;65111;50.536;19.204;2023-04-21T09:49:51;10.00;10.00;7.50
76304;PMS7003;65111;50.536;19.204;2023-04-21T09:52:20;13.50;12.50;9.00
76304;PMS7003;65111;50.536;19.204;2023-04-21T09:54:51;15.00;14.00;11.00
76304;PMS7003;65111;50.536;19.204;2023-04-21T09:57:25;11.50;11.50;8.50
76304;PMS7003;65111;50.536;19.204;2023-04-21T09:59:53;14.67;13.33;9.33
76304;PMS7003;65111;50.536;19.204;2023-04-21T10:02:24;12.00;12.00;9.50
76304;PMS7003;65111;50.536;19.204;2023-04-21T10:04:53;14.00;13.00;10.00
76304;PMS7003;65111;50.536;19.204;2023-04-21T10:07:19;13.00;13.00;10.00
76304;PMS7003;65111;50.536;19.204;2023-04-21T10:09:55;14.67;13.00;10.00
76304;PMS7003;65111;50.536;19.204;2023-04-21T10:12:24;15.00;15.00;11.00
76304;PMS7003;65111;50.536;19.204;2023-04-21T10:14:54;10.00;9.00;7.00
76304;PMS7003;65111;50.536;19.204;2023-04-21T10:17:22;13.00;10.50;9.00
76304;PMS7003;65111;50.536;19.204;2023-04-21T10:19:50;13.67;12.00;9.00
76304;PMS7003;65111;50.536;19.204;2023-04-21T10:22:51;12.00;12.00;9.67
76304;PMS7003;65111;50.536;19.204;2023-04-21T10:25:21;12.00;12.00;10.50
76304;PMS7003;65111;50.536;19.204;2023-04-21T10:27:47;9.33;9.33;8.00
76304;PMS7003;65111;50.536;19.204;2023-04-21T10:30:19;14.00;12.50;9.50
76304;PMS7003;65111;50.536;19.204;2023-04-21T10:32:47;9.00;8.50;6.50
76304;PMS7003;65111;50.536;19.204;2023-04-21T10:35:14;13.00;13.00;11.00
76304;PMS7003;65111;50.536;19.204;2023-04-21T10:37:48;10.00;10.00;9.00
76304;PMS7003;65111;50.536;19.204;2023-04-21T10:43:01;11.50;10.00;8.00
76304;PMS7003;65111;50.536;19.204;2023-04-21T10:45:29;12.00;12.00;10.50
76304;PMS7003;65111;50.536;19.204;2023-04-21T10:47:58;10.50;10.50;9.00
76304;PMS7003;65111;50.536;19.204;2023-04-21T10:50:29;13.00;12.00;10.00
76304;PMS7003;65111;50.536;19.204;2023-04-21T10:52:57;10.00;10.00;9.00
76304;PMS7003;65111;50.536;19.204;2023-04-21T10:55:33;13.00;13.00;10.00
76304;PMS7003;65111;50.536;19.204;2023-04-21T10:58:03;12.67;12.67;9.33
76304;PMS7003;65111;50.536;19.204;2023-04-21T11:00:35;16.50;15.50;11.50
76304;PMS7003;65111;50.536;19.204;2023-04-21T11:03:05;13.00;13.00;10.00
76304;PMS7003;65111;50.536;19.204;2023-04-21T11:05:33;12.00;12.00;9.00
76304;PMS7003;65111;50.536;19.204;2023-04-21T11:08:05;11.00;11.00;9.00
76304;PMS7003;65111;50.536;19.204;2023-04-21T11:13:21;11.33;10.67;8.00
76304;PMS7003;65111;50.536;19.204;2023-04-21T11:15:55;12.00;12.00;9.67
76304;PMS7003;65111;50.536;19.204;2023-04-21T11:18:38;12.50;12.50;10.50
76304;PMS7003;65111;50.536;19.204;2023-04-21T11:21:13;8.00;8.00;5.00
76304;PMS7003;65111;50.536;19.204;2023-04-21T11:23:49;8.00;8.00;6.00
76304;PMS7003;65111;50.536;19.204;2023-04-21T11:26:16;6.00;5.00;4.00
76304;PMS7003;65111;50.536;19.204;2023-04-21T11:28:46;11.00;10.50;9.00
76304;PMS7003;65111;50.536;19.204;2023-04-21T11:31:14;10.00;10.00;8.33
76304;PMS7003;65111;50.536;19.204;2023-04-21T11:33:40;9.00;9.00;7.00
76304;PMS7003;65111;50.536;19.204;2023-04-21T11:36:06;10.00;10.00;7.50
76304;PMS7003;65111;50.536;19.204;2023-04-21T11:38:39;8.50;7.00;6.50
76304;PMS7003;65111;50.536;19.204;2023-04-21T11:41:06;9.00;9.00;7.00
76304;PMS7003;65111;50.536;19.204;2023-04-21T11:43:35;10.00;10.00;7.00
76304;PMS7003;65111;50.536;19.204;2023-04-21T11:49:10;10.00;9.00;7.00
76304;PMS7003;65111;50.536;19.204;2023-04-21T11:51:38;12.00;11.00;8.00
76304;PMS7003;65111;50.536;19.204;2023-04-21T11:54:07;12.00;11.00;9.00
76304;PMS7003;65111;50.536;19.204;2023-04-21T11:56:34;8.00;8.00;7.00
76304;PMS7003;65111;50.536;19.204;2023-04-21T11:59:08;7.00;7.00;5.00
76304;PMS7003;65111;50.536;19.204;2023-04-21T12:01:46;9.00;9.00;7.50
76304;PMS7003;65111;50.536;19.204;2023-04-21T12:04:17;9.00;8.00;7.00
76304;PMS7003;65111;50.536;19.204;2023-04-21T12:06:45;9.00;9.00;7.00
76304;PMS7003;65111;50.536;19.204;2023-04-21T12:09:15;9.50;9.50;8.00
76304;PMS7003;65111;50.536;19.204;2023-04-21T12:11:49;7.00;7.00;6.00
76304;PMS7003;65111;50.536;19.204;2023-04-21T12:14:17;6.00;6.00;5.00
76304;PMS7003;65111;50.536;19.204;2023-04-21T12:16:49;7.50;7.50;6.00
76304;PMS7003;65111;50.536;19.204;2023-04-21T12:19:37;6.00;6.00;5.00
76304;PMS7003;65111;50.536;19.204;2023-04-21T12:22:08;9.00;9.00;7.00
76304;PMS7003;65111;50.536;19.204;2023-04-21T12:24:36;6.00;6.00;5.00
76304;PMS7003;65111;50.536;19.204;2023-04-21T12:27:03;7.00;7.00;7.00
76304;PMS7003;65111;50.536;19.204;2023-04-21T12:29:30;7.00;7.00;5.50
76304;PMS7003;65111;50.536;19.204;2023-04-21T12:31:56;6.00;6.00;5.00
76304;PMS7003;65111;50.536;19.204;2023-04-21T12:34:22;8.00;8.00;6.00
76304;PMS7003;65111;50.536;19.204;2023-04-21T12:36:48;6.00;6.00;5.00
76304;PMS7003;65111;50.536;19.204;2023-04-21T12:39:14;6.00;6.00;5.00
76304;PMS7003;65111;50.536;19.204;2023-04-21T12:41:42;10.00;9.00;7.00
76304;PMS7003;65111;50.536;19.204;2023-04-21T12:44:07;9.00;8.33;6.67
76304;PMS7003;65111;50.536;19.204;2023-04-21T12:46:33;8.00;8.00;5.00
76304;PMS7003;65111;50.536;19.204;2023-04-21T12:48:59;8.00;8.00;6.00
76304;PMS7003;65111;50.536;19.204;2023-04-21T12:51:25;8.50;8.50;6.50
76304;PMS7003;65111;50.536;19.204;2023-04-21T12:53:51;11.00;8.00;7.00
76304;PMS7003;65111;50.536;19.204;2023-04-21T12:56:17;9.00;9.00;7.00
76304;PMS7003;65111;50.536;19.204;2023-04-21T12:58:43;6.00;6.00;5.00
76304;PMS7003;65111;50.536;19.204;2023-04-21T13:01:09;12.00;9.00;7.00
76304;PMS7003;65111;50.536;19.204;2023-04-21T13:03:39;6.33;6.33;5.00
76304;PMS7003;65111;50.536;19.204;2023-04-21T13:06:05;8.00;8.00;5.50
76304;PMS7003;65111;50.536;19.204;2023-04-21T13:08:31;10.50;9.50;6.00
76304;PMS7003;65111;50.536;19.204;2023-04-21T13:10:57;6.00;6.00;4.50
76304;PMS7003;65111;50.536;19.204;2023-04-21T13:13:23;4.00;4.00;3.00
76304;PMS7003;65111;50.536;19.204;2023-04-21T13:15:49;7.00;7.00;4.33
76304;PMS7003;65111;50.536;19.204;2023-04-21T13:18:15;5.00;5.00;3.50
76304;PMS7003;65111;50.536;19.204;2023-04-21T13:20:41;4.00;4.00;3.00
76304;PMS7003;65111;50.536;19.204;2023-04-21T13:23:07;4.33;4.33;4.00
76304;PMS7003;65111;50.536;19.204;2023-04-21T13:25:33;6.00;6.00;5.00
76304;PMS7003;65111;50.536;19.204;2023-04-21T13:27:59;9.00;8.00;6.00
76304;PMS7003;65111;50.536;19.204;2023-04-21T13:30:25;10.00;10.00;7.00
76304;PMS7003;65111;50.536;19.204;2023-04-21T13:32:51;8.00;7.50;6.00
76304;PMS7003;65111;50.536;19.204;2023-04-21T13:35:17;10.00;10.00;7.00
76304;PMS7003;65111;50.536;19.204;2023-04-21T13:37:43;10.00;7.00;7.00
76304;PMS7003;65111;50.536;19.204;2023-04-21T13:40:09;6.67;6.33;5.33
76304;PMS7003;65111;50.536;19.204;2023-04-21T13:42:37;10.00;7.00;6.00
76304;PMS7003;65111;50.536;19.204;2023-04-21T13:45:05;7.00;7.00;5.00
76304;PMS7003;65111;50.536;19.204;2023-04-21T13:47:32;6.50;6.50;5.50
76304;PMS7003;65111;50.536;19.204;2023-04-21T13:49:58;6.00;6.00;4.33
76304;PMS7003;65111;50.536;19.204;2023-04-21T13:52:25;9.00;8.00;5.00